sensor_id;sensor_type;location;lat;lon;timestamp;P1;durP1;ratioP1;P2;durP2;ratioP2
8978;SDS011;4524;51.364;5.448;2024-02-28T00:01:47;28.63;;;13.75;;
8978;SDS011;4524;51.364;5.448;2024-02-28T00:04:16;31.00;;;13.65;;
8978;SDS011;4524;51.364;5.448;2024-02-28T00:06:45;26.92;;;12.70;;
8978;SDS011;4524;51.364;5.448;2024-02-28T00:09:13;34.92;;;15.23;;
8978;SDS011;4524;51.364;5.448;2024-02-28T00:11:43;33.40;;;15.95;;
8978;SDS011;4524;51.364;5.448;2024-02-28T00:14:12;31.27;;;14.82;;
8978;SDS011;4524;51.364;5.448;2024-02-28T00:16:41;39.45;;;15.20;;
8978;SDS011;4524;51.364;5.448;2024-02-28T00:19:09;34.58;;;15.60;;
8978;SDS011;4524;51.364;5.448;2024-02-28T00:24:07;33.67;;;15.35;;
8978;SDS011;4524;51.364;5.448;2024-02-28T00:26:36;25.08;;;12.68;;
8978;SDS011;4524;51.364;5.448;2024-02-28T00:29:09;36.40;;;16.15;;
8978;SDS011;4524;51.364;5.448;2024-02-28T00:31:37;30.83;;;14.82;;
8978;SDS011;4524;51.364;5.448;2024-02-28T00:34:06;36.70;;;16.08;;
8978;SDS011;4524;51.364;5.448;2024-02-28T00:36:35;33.60;;;15.25;;
8978;SDS011;4524;51.364;5.448;2024-02-28T00:39:20;33.58;;;16.15;;
8978;SDS011;4524;51.364;5.448;2024-02-28T00:41:49;33.72;;;16.10;;
8978;SDS011;4524;51.364;5.448;2024-02-28T00:44:18;38.85;;;16.02;;
8978;SDS011;4524;51.364;5.448;2024-02-28T00:46:47;33.50;;;16.00;;
8978;SDS011;4524;51.364;5.448;2024-02-28T00:49:15;34.95;;;15.80;;
8978;SDS011;4524;51.364;5.448;2024-02-28T00:51:43;38.05;;;16.45;;
8978;SDS011;4524;51.364;5.448;2024-02-28T00:54:11;38.83;;;17.35;;
8978;SDS011;4524;51.364;5.448;2024-02-28T00:56:39;30.58;;;14.68;;
8978;SDS011;4524;51.364;5.448;2024-02-28T00:59:08;33.80;;;14.85;;
8978;SDS011;4524;51.364;5.448;2024-02-28T01:01:39;33.05;;;14.93;;
8978;SDS011;4524;51.364;5.448;2024-02-28T01:04:08;30.48;;;14.88;;
8978;SDS011;4524;51.364;5.448;2024-02-28T01:06:36;34.95;;;15.75;;
8978;SDS011;4524;51.364;5.448;2024-02-28T01:14:01;37.75;;;17.35;;
8978;SDS011;4524;51.364;5.448;2024-02-28T01:16:30;37.15;;;15.88;;
8978;SDS011;4524;51.364;5.448;2024-02-28T01:18:59;33.72;;;15.55;;
8978;SDS011;4524;51.364;5.448;2024-02-28T01:21:27;33.90;;;15.00;;
8978;SDS011;4524;51.364;5.448;2024-02-28T01:23:56;35.25;;;15.60;;
8978;SDS011;4524;51.364;5.448;2024-02-28T01:26:24;36.78;;;14.65;;
8978;SDS011;4524;51.364;5.448;2024-02-28T01:28:52;33.38;;;14.82;;
8978;SDS011;4524;51.364;5.448;2024-02-28T01:31:20;32.95;;;14.40;;
8978;SDS011;4524;51.364;5.448;2024-02-28T01:33:48;33.83;;;16.15;;
8978;SDS011;4524;51.364;5.448;2024-02-28T01:36:18;32.58;;;12.82;;
8978;SDS011;4524;51.364;5.448;2024-02-28T01:38:46;31.27;;;14.10;;
8978;SDS011;4524;51.364;5.448;2024-02-28T01:41:15;36.03;;;15.57;;
8978;SDS011;4524;51.364;5.448;2024-02-28T01:43:43;34.30;;;14.52;;
8978;SDS011;4524;51.364;5.448;2024-02-28T01:46:15;31.58;;;15.88;;
8978;SDS011;4524;51.364;5.448;2024-02-28T01:48:48;35.88;;;15.75;;
8978;SDS011;4524;51.364;5.448;2024-02-28T01:51:16;37.22;;;14.50;;
8978;SDS011;4524;51.364;5.448;2024-02-28T01:53:46;30.42;;;14.80;;
8978;SDS011;4524;51.364;5.448;2024-02-28T01:56:15;34.50;;;14.40;;
8978;SDS011;4524;51.364;5.448;2024-02-28T02:01:13;38.00;;;14.25;;
8978;SDS011;4524;51.364;5.448;2024-02-28T02:03:47;29.95;;;14.10;;
8978;SDS011;4524;51.364;5.448;2024-02-28T02:06:16;27.52;;;12.93;;
8978;SDS011;4524;51.364;5.448;2024-02-28T02:08:45;30.88;;;14.90;;
8978;SDS011;4524;51.364;5.448;2024-02-28T02:11:14;31.27;;;13.88;;
8978;SDS011;4524;51.364;5.448;2024-02-28T02:13:48;28.40;;;14.07;;
8978;SDS011;4524;51.364;5.448;2024-02-28T02:16:17;32.53;;;15.80;;
8978;SDS011;4524;51.364;5.448;2024-02-28T02:18:46;32.65;;;14.70;;
8978;SDS011;4524;51.364;5.448;2024-02-28T02:21:15;33.45;;;15.77;;
8978;SDS011;4524;51.364;5.448;2024-02-28T02:23:48;33.33;;;14.95;;
8978;SDS011;4524;51.364;5.448;2024-02-28T02:26:17;31.17;;;15.65;;
8978;SDS011;4524;51.364;5.448;2024-02-28T02:28:45;34.45;;;15.30;;
8978;SDS011;4524;51.364;5.448;2024-02-28T02:31:14;28.08;;;14.85;;
8978;SDS011;4524;51.364;5.448;2024-02-28T02:33:42;33.40;;;14.50;;
8978;SDS011;4524;51.364;5.448;2024-02-28T02:36:10;32.03;;;14.57;;
8978;SDS011;4524;51.364;5.448;2024-02-28T02:38:40;32.13;;;14.35;;
8978;SDS011;4524;51.364;5.448;2024-02-28T02:41:09;33.45;;;14.38;;
8978;SDS011;4524;51.364;5.448;2024-02-28T02:43:37;32.42;;;13.32;;
8978;SDS011;4524;51.364;5.448;2024-02-28T02:46:05;27.02;;;13.18;;
8978;SDS011;4524;51.364;5.448;2024-02-28T02:48:33;36.38;;;16.02;;
8978;SDS011;4524;51.364;5.448;2024-02-28T02:51:02;30.95;;;12.80;;
8978;SDS011;4524;51.364;5.448;2024-02-28T02:53:30;30.92;;;13.77;;
8978;SDS011;4524;51.364;5.448;2024-02-28T02:55:58;30.85;;;15.07;;
8978;SDS011;4524;51.364;5.448;2024-02-28T02:58:28;31.92;;;14.68;;
8978;SDS011;4524;51.364;5.448;2024-02-28T03:00:56;29.30;;;13.75;;
8978;SDS011;4524;51.364;5.448;2024-02-28T03:03:24;27.05;;;14.82;;
8978;SDS011;4524;51.364;5.448;2024-02-28T03:05:52;28.70;;;14.15;;
8978;SDS011;4524;51.364;5.448;2024-02-28T03:08:20;38.30;;;16.73;;
8978;SDS011;4524;51.364;5.448;2024-02-28T03:10:48;27.98;;;13.38;;
8978;SDS011;4524;51.364;5.448;2024-02-28T03:13:17;30.45;;;14.52;;
8978;SDS011;4524;51.364;5.448;2024-02-28T03:15:47;30.08;;;12.77;;
8978;SDS011;4524;51.364;5.448;2024-02-28T03:18:15;26.40;;;13.10;;
8978;SDS011;4524;51.364;5.448;2024-02-28T03:20:44;27.17;;;13.20;;
8978;SDS011;4524;51.364;5.448;2024-02-28T03:23:12;33.38;;;14.30;;
8978;SDS011;4524;51.364;5.448;2024-02-28T03:25:40;33.13;;;14.95;;
8978;SDS011;4524;51.364;5.448;2024-02-28T03:28:08;29.63;;;13.35;;
8978;SDS011;4524;51.364;5.448;2024-02-28T03:30:36;32.15;;;14.30;;
8978;SDS011;4524;51.364;5.448;2024-02-28T03:33:06;29.05;;;13.57;;
8978;SDS011;4524;51.364;5.448;2024-02-28T03:35:34;32.08;;;14.25;;
8978;SDS011;4524;51.364;5.448;2024-02-28T03:38:03;35.53;;;14.23;;
8978;SDS011;4524;51.364;5.448;2024-02-28T03:40:31;29.70;;;14.05;;
8978;SDS011;4524;51.364;5.448;2024-02-28T03:42:59;38.25;;;14.68;;
8978;SDS011;4524;51.364;5.448;2024-02-28T03:45:28;28.35;;;13.55;;
8978;SDS011;4524;51.364;5.448;2024-02-28T03:47:56;33.30;;;14.25;;
8978;SDS011;4524;51.364;5.448;2024-02-28T03:50:26;36.25;;;16.00;;
8978;SDS011;4524;51.364;5.448;2024-02-28T03:52:54;35.08;;;14.40;;
8978;SDS011;4524;51.364;5.448;2024-02-28T03:55:22;37.00;;;15.55;;
8978;SDS011;4524;51.364;5.448;2024-02-28T03:57:50;34.78;;;15.20;;
8978;SDS011;4524;51.364;5.448;2024-02-28T04:00:19;35.28;;;15.00;;
8978;SDS011;4524;51.364;5.448;2024-02-28T04:02:47;35.08;;;14.52;;
8978;SDS011;4524;51.364;5.448;2024-02-28T04:05:16;43.08;;;16.02;;
8978;SDS011;4524;51.364;5.448;2024-02-28T04:07:46;42.38;;;14.85;;
8978;SDS011;4524;51.364;5.448;2024-02-28T04:10:14;39.33;;;13.90;;
8978;SDS011;4524;51.364;5.448;2024-02-28T04:12:42;36.55;;;15.43;;
8978;SDS011;4524;51.364;5.448;2024-02-28T04:15:11;45.33;;;17.95;;
8978;SDS011;4524;51.364;5.448;2024-02-28T04:17:41;38.33;;;14.30;;
8978;SDS011;4524;51.364;5.448;2024-02-28T04:20:10;35.35;;;15.05;;
8978;SDS011;4524;51.364;5.448;2024-02-28T04:22:39;35.65;;;13.10;;
8978;SDS011;4524;51.364;5.448;2024-02-28T04:25:09;37.22;;;14.75;;
8978;SDS011;4524;51.364;5.448;2024-02-28T04:27:37;30.38;;;13.88;;
8978;SDS011;4524;51.364;5.448;2024-02-28T04:30:06;31.05;;;14.23;;
8978;SDS011;4524;51.364;5.448;2024-02-28T04:32:35;36.13;;;13.68;;
8978;SDS011;4524;51.364;5.448;2024-02-28T04:35:04;30.70;;;14.68;;
8978;SDS011;4524;51.364;5.448;2024-02-28T04:37:33;30.33;;;12.60;;
8978;SDS011;4524;51.364;5.448;2024-02-28T04:40:03;31.63;;;13.90;;
8978;SDS011;4524;51.364;5.448;2024-02-28T04:42:34;30.83;;;13.23;;
8978;SDS011;4524;51.364;5.448;2024-02-28T04:45:02;31.92;;;14.10;;
8978;SDS011;4524;51.364;5.448;2024-02-28T04:47:31;31.58;;;13.93;;
8978;SDS011;4524;51.364;5.448;2024-02-28T04:50:09;31.67;;;13.85;;
8978;SDS011;4524;51.364;5.448;2024-02-28T04:52:38;35.72;;;14.07;;
8978;SDS011;4524;51.364;5.448;2024-02-28T04:55:06;30.80;;;13.40;;
8978;SDS011;4524;51.364;5.448;2024-02-28T04:57:36;29.27;;;13.98;;
8978;SDS011;4524;51.364;5.448;2024-02-28T05:00:05;27.40;;;14.07;;
8978;SDS011;4524;51.364;5.448;2024-02-28T05:02:34;33.38;;;14.80;;
8978;SDS011;4524;51.364;5.448;2024-02-28T05:05:02;31.80;;;14.50;;
8978;SDS011;4524;51.364;5.448;2024-02-28T05:07:31;28.05;;;13.38;;
8978;SDS011;4524;51.364;5.448;2024-02-28T05:09:59;28.60;;;13.75;;
8978;SDS011;4524;51.364;5.448;2024-02-28T05:12:27;24.17;;;12.13;;
8978;SDS011;4524;51.364;5.448;2024-02-28T05:14:57;27.33;;;14.20;;
8978;SDS011;4524;51.364;5.448;2024-02-28T05:17:25;33.70;;;13.13;;
8978;SDS011;4524;51.364;5.448;2024-02-28T05:19:53;30.02;;;13.50;;
8978;SDS011;4524;51.364;5.448;2024-02-28T05:22:23;22.95;;;12.93;;
8978;SDS011;4524;51.364;5.448;2024-02-28T05:24:52;29.98;;;13.95;;
8978;SDS011;4524;51.364;5.448;2024-02-28T05:27:20;27.98;;;13.80;;
8978;SDS011;4524;51.364;5.448;2024-02-28T05:29:49;28.42;;;13.60;;
8978;SDS011;4524;51.364;5.448;2024-02-28T05:32:18;30.40;;;12.88;;
8978;SDS011;4524;51.364;5.448;2024-02-28T05:34:47;24.75;;;12.75;;
8978;SDS011;4524;51.364;5.448;2024-02-28T05:37:16;28.83;;;13.20;;
8978;SDS011;4524;51.364;5.448;2024-02-28T05:39:45;24.17;;;12.43;;
8978;SDS011;4524;51.364;5.448;2024-02-28T05:42:13;26.73;;;12.30;;
8978;SDS011;4524;51.364;5.448;2024-02-28T05:44:48;25.10;;;12.38;;
8978;SDS011;4524;51.364;5.448;2024-02-28T05:47:16;24.13;;;12.05;;
8978;SDS011;4524;51.364;5.448;2024-02-28T05:49:49;24.52;;;11.57;;
8978;SDS011;4524;51.364;5.448;2024-02-28T05:52:17;24.80;;;13.40;;
8978;SDS011;4524;51.364;5.448;2024-02-28T05:54:45;32.75;;;13.82;;
8978;SDS011;4524;51.364;5.448;2024-02-28T05:57:14;27.63;;;13.13;;
8978;SDS011;4524;51.364;5.448;2024-02-28T05:59:43;22.25;;;12.55;;
8978;SDS011;4524;51.364;5.448;2024-02-28T06:02:11;27.30;;;12.70;;
8978;SDS011;4524;51.364;5.448;2024-02-28T06:04:39;28.13;;;12.52;;
8978;SDS011;4524;51.364;5.448;2024-02-28T06:07:09;27.60;;;12.60;;
8978;SDS011;4524;51.364;5.448;2024-02-28T06:09:37;26.05;;;12.05;;
8978;SDS011;4524;51.364;5.448;2024-02-28T06:12:05;28.95;;;13.80;;
8978;SDS011;4524;51.364;5.448;2024-02-28T06:14:34;28.75;;;13.18;;
8978;SDS011;4524;51.364;5.448;2024-02-28T06:17:02;25.15;;;12.45;;
8978;SDS011;4524;51.364;5.448;2024-02-28T06:19:30;24.08;;;11.73;;
8978;SDS011;4524;51.364;5.448;2024-02-28T06:21:58;23.95;;;12.88;;
8978;SDS011;4524;51.364;5.448;2024-02-28T06:24:28;25.77;;;12.93;;
8978;SDS011;4524;51.364;5.448;2024-02-28T06:26:56;21.63;;;11.93;;
8978;SDS011;4524;51.364;5.448;2024-02-28T06:29:24;27.85;;;13.85;;
8978;SDS011;4524;51.364;5.448;2024-02-28T06:31:52;28.92;;;15.20;;
8978;SDS011;4524;51.364;5.448;2024-02-28T06:34:21;26.77;;;12.80;;
8978;SDS011;4524;51.364;5.448;2024-02-28T06:36:51;23.20;;;10.75;;
8978;SDS011;4524;51.364;5.448;2024-02-28T06:39:19;30.45;;;12.60;;
8978;SDS011;4524;51.364;5.448;2024-02-28T06:41:49;30.20;;;12.32;;
8978;SDS011;4524;51.364;5.448;2024-02-28T06:44:18;26.10;;;11.90;;
8978;SDS011;4524;51.364;5.448;2024-02-28T06:46:48;25.00;;;11.52;;
8978;SDS011;4524;51.364;5.448;2024-02-28T06:49:16;24.38;;;11.85;;
8978;SDS011;4524;51.364;5.448;2024-02-28T06:51:44;24.08;;;12.73;;
8978;SDS011;4524;51.364;5.448;2024-02-28T06:54:13;23.67;;;12.10;;
8978;SDS011;4524;51.364;5.448;2024-02-28T06:56:42;26.35;;;11.95;;
8978;SDS011;4524;51.364;5.448;2024-02-28T06:59:14;28.02;;;13.88;;
8978;SDS011;4524;51.364;5.448;2024-02-28T07:01:43;27.50;;;12.45;;
8978;SDS011;4524;51.364;5.448;2024-02-28T07:04:12;25.35;;;12.77;;
8978;SDS011;4524;51.364;5.448;2024-02-28T07:06:40;33.30;;;13.20;;
8978;SDS011;4524;51.364;5.448;2024-02-28T07:09:08;24.02;;;12.35;;
8978;SDS011;4524;51.364;5.448;2024-02-28T07:11:37;26.02;;;12.73;;
8978;SDS011;4524;51.364;5.448;2024-02-28T07:14:05;21.63;;;9.77;;
8978;SDS011;4524;51.364;5.448;2024-02-28T07:16:35;23.67;;;12.98;;
8978;SDS011;4524;51.364;5.448;2024-02-28T07:19:03;23.63;;;12.45;;
8978;SDS011;4524;51.364;5.448;2024-02-28T07:21:32;24.65;;;13.23;;
8978;SDS011;4524;51.364;5.448;2024-02-28T07:24:00;28.70;;;14.48;;
8978;SDS011;4524;51.364;5.448;2024-02-28T07:26:29;27.30;;;13.52;;
8978;SDS011;4524;51.364;5.448;2024-02-28T07:28:57;23.98;;;12.13;;
8978;SDS011;4524;51.364;5.448;2024-02-28T07:31:25;26.17;;;13.20;;
8978;SDS011;4524;51.364;5.448;2024-02-28T07:33:56;22.95;;;13.30;;
8978;SDS011;4524;51.364;5.448;2024-02-28T07:36:24;31.77;;;14.40;;
8978;SDS011;4524;51.364;5.448;2024-02-28T07:38:52;27.35;;;13.57;;
8978;SDS011;4524;51.364;5.448;2024-02-28T07:41:21;27.63;;;12.98;;
8978;SDS011;4524;51.364;5.448;2024-02-28T07:43:49;25.65;;;12.77;;
8978;SDS011;4524;51.364;5.448;2024-02-28T07:46:18;21.30;;;11.77;;
8978;SDS011;4524;51.364;5.448;2024-02-28T07:48:46;27.15;;;13.45;;
8978;SDS011;4524;51.364;5.448;2024-02-28T07:51:16;25.50;;;12.00;;
8978;SDS011;4524;51.364;5.448;2024-02-28T07:53:45;27.10;;;13.20;;
8978;SDS011;4524;51.364;5.448;2024-02-28T07:56:15;30.40;;;13.45;;
8978;SDS011;4524;51.364;5.448;2024-02-28T07:58:44;26.20;;;13.02;;
8978;SDS011;4524;51.364;5.448;2024-02-28T08:01:13;30.52;;;13.48;;
8978;SDS011;4524;51.364;5.448;2024-02-28T08:03:43;29.45;;;13.23;;
8978;SDS011;4524;51.364;5.448;2024-02-28T08:06:12;29.88;;;14.07;;
8978;SDS011;4524;51.364;5.448;2024-02-28T08:08:45;29.55;;;13.38;;
8978;SDS011;4524;51.364;5.448;2024-02-28T08:11:14;31.92;;;15.15;;
8978;SDS011;4524;51.364;5.448;2024-02-28T08:13:43;22.80;;;11.93;;
8978;SDS011;4524;51.364;5.448;2024-02-28T08:16:11;25.70;;;12.05;;
8978;SDS011;4524;51.364;5.448;2024-02-28T08:18:40;25.90;;;14.75;;
8978;SDS011;4524;51.364;5.448;2024-02-28T08:21:08;35.15;;;14.85;;
8978;SDS011;4524;51.364;5.448;2024-02-28T08:23:38;27.67;;;12.43;;
8978;SDS011;4524;51.364;5.448;2024-02-28T08:26:08;26.30;;;12.68;;
8978;SDS011;4524;51.364;5.448;2024-02-28T08:28:37;24.73;;;11.65;;
8978;SDS011;4524;51.364;5.448;2024-02-28T08:31:05;26.77;;;13.88;;
8978;SDS011;4524;51.364;5.448;2024-02-28T08:33:33;27.67;;;12.68;;
8978;SDS011;4524;51.364;5.448;2024-02-28T08:36:02;31.98;;;13.43;;
8978;SDS011;4524;51.364;5.448;2024-02-28T08:38:31;23.33;;;12.77;;
8978;SDS011;4524;51.364;5.448;2024-02-28T08:41:01;29.05;;;14.18;;
8978;SDS011;4524;51.364;5.448;2024-02-28T08:43:31;31.60;;;14.30;;
8978;SDS011;4524;51.364;5.448;2024-02-28T08:45:59;22.20;;;12.20;;
8978;SDS011;4524;51.364;5.448;2024-02-28T08:48:28;24.75;;;12.27;;
8978;SDS011;4524;51.364;5.448;2024-02-28T08:50:57;22.10;;;12.98;;
8978;SDS011;4524;51.364;5.448;2024-02-28T08:53:26;31.67;;;12.75;;
8978;SDS011;4524;51.364;5.448;2024-02-28T08:55:54;29.00;;;13.73;;
8978;SDS011;4524;51.364;5.448;2024-02-28T08:58:22;23.15;;;12.57;;
8978;SDS011;4524;51.364;5.448;2024-02-28T09:00:53;24.63;;;12.95;;
8978;SDS011;4524;51.364;5.448;2024-02-28T09:03:22;20.38;;;10.88;;
8978;SDS011;4524;51.364;5.448;2024-02-28T09:05:51;19.63;;;10.90;;
8978;SDS011;4524;51.364;5.448;2024-02-28T09:08:19;24.95;;;13.50;;
8978;SDS011;4524;51.364;5.448;2024-02-28T09:10:47;27.55;;;12.88;;
8978;SDS011;4524;51.364;5.448;2024-02-28T09:13:16;18.00;;;10.77;;
8978;SDS011;4524;51.364;5.448;2024-02-28T09:15:57;32.03;;;11.60;;
8978;SDS011;4524;51.364;5.448;2024-02-28T09:18:26;18.92;;;9.60;;
8978;SDS011;4524;51.364;5.448;2024-02-28T09:20:54;20.10;;;11.65;;
8978;SDS011;4524;51.364;5.448;2024-02-28T09:23:23;23.63;;;10.25;;
8978;SDS011;4524;51.364;5.448;2024-02-28T09:25:51;20.20;;;10.00;;
8978;SDS011;4524;51.364;5.448;2024-02-28T09:28:20;25.85;;;13.05;;
8978;SDS011;4524;51.364;5.448;2024-02-28T09:30:49;27.77;;;11.85;;
8978;SDS011;4524;51.364;5.448;2024-02-28T09:33:23;28.52;;;10.88;;
8978;SDS011;4524;51.364;5.448;2024-02-28T09:35:53;19.05;;;11.10;;
8978;SDS011;4524;51.364;5.448;2024-02-28T09:38:22;26.70;;;11.88;;
8978;SDS011;4524;51.364;5.448;2024-02-28T09:40:52;22.30;;;10.65;;
8978;SDS011;4524;51.364;5.448;2024-02-28T09:43:23;22.15;;;10.80;;
8978;SDS011;4524;51.364;5.448;2024-02-28T09:45:57;22.10;;;10.32;;
8978;SDS011;4524;51.364;5.448;2024-02-28T09:48:29;20.30;;;10.75;;
8978;SDS011;4524;51.364;5.448;2024-02-28T09:50:58;21.65;;;10.75;;
8978;SDS011;4524;51.364;5.448;2024-02-28T09:53:31;20.27;;;10.15;;
8978;SDS011;4524;51.364;5.448;2024-02-28T09:56:00;18.38;;;9.98;;
8978;SDS011;4524;51.364;5.448;2024-02-28T09:58:28;18.30;;;8.77;;
8978;SDS011;4524;51.364;5.448;2024-02-28T10:00:59;28.02;;;10.95;;
8978;SDS011;4524;51.364;5.448;2024-02-28T10:03:35;19.83;;;10.95;;
8978;SDS011;4524;51.364;5.448;2024-02-28T10:06:06;23.83;;;10.05;;
8978;SDS011;4524;51.364;5.448;2024-02-28T10:08:39;23.67;;;10.10;;
8978;SDS011;4524;51.364;5.448;2024-02-28T10:13:37;25.65;;;10.57;;
8978;SDS011;4524;51.364;5.448;2024-02-28T10:16:06;23.67;;;10.38;;
8978;SDS011;4524;51.364;5.448;2024-02-28T10:18:36;21.58;;;10.55;;
8978;SDS011;4524;51.364;5.448;2024-02-28T10:21:06;23.80;;;10.60;;
8978;SDS011;4524;51.364;5.448;2024-02-28T10:23:34;24.08;;;10.68;;
8978;SDS011;4524;51.364;5.448;2024-02-28T10:26:04;24.63;;;10.98;;
8978;SDS011;4524;51.364;5.448;2024-02-28T10:28:36;19.70;;;9.55;;
8978;SDS011;4524;51.364;5.448;2024-02-28T10:31:07;18.60;;;8.95;;
8978;SDS011;4524;51.364;5.448;2024-02-28T10:33:38;27.02;;;12.02;;
8978;SDS011;4524;51.364;5.448;2024-02-28T10:36:10;19.27;;;10.23;;
8978;SDS011;4524;51.364;5.448;2024-02-28T10:38:41;18.45;;;10.00;;
8978;SDS011;4524;51.364;5.448;2024-02-28T10:41:10;22.25;;;10.18;;
8978;SDS011;4524;51.364;5.448;2024-02-28T10:43:42;28.42;;;10.80;;
8978;SDS011;4524;51.364;5.448;2024-02-28T10:46:12;19.60;;;10.32;;
8978;SDS011;4524;51.364;5.448;2024-02-28T10:48:52;18.45;;;8.25;;
8978;SDS011;4524;51.364;5.448;2024-02-28T10:51:23;20.88;;;10.98;;
8978;SDS011;4524;51.364;5.448;2024-02-28T10:53:56;23.33;;;9.52;;
8978;SDS011;4524;51.364;5.448;2024-02-28T10:56:36;20.95;;;9.68;;
8978;SDS011;4524;51.364;5.448;2024-02-28T10:59:05;20.23;;;9.93;;
8978;SDS011;4524;51.364;5.448;2024-02-28T11:01:37;17.92;;;10.05;;
8978;SDS011;4524;51.364;5.448;2024-02-28T11:04:15;20.88;;;9.50;;
8978;SDS011;4524;51.364;5.448;2024-02-28T11:06:48;22.02;;;10.38;;
8978;SDS011;4524;51.364;5.448;2024-02-28T11:09:19;17.17;;;9.57;;
8978;SDS011;4524;51.364;5.448;2024-02-28T11:11:55;17.58;;;9.65;;
8978;SDS011;4524;51.364;5.448;2024-02-28T11:14:25;18.25;;;9.77;;
8978;SDS011;4524;51.364;5.448;2024-02-28T11:17:04;17.00;;;8.05;;
8978;SDS011;4524;51.364;5.448;2024-02-28T11:19:35;23.42;;;9.82;;
8978;SDS011;4524;51.364;5.448;2024-02-28T11:22:04;18.02;;;8.75;;
8978;SDS011;4524;51.364;5.448;2024-02-28T11:24:33;21.80;;;9.88;;
8978;SDS011;4524;51.364;5.448;2024-02-28T11:27:04;20.00;;;10.18;;
8978;SDS011;4524;51.364;5.448;2024-02-28T11:29:33;17.83;;;8.38;;
8978;SDS011;4524;51.364;5.448;2024-02-28T11:32:02;20.23;;;8.82;;
8978;SDS011;4524;51.364;5.448;2024-02-28T11:34:40;15.70;;;8.40;;
8978;SDS011;4524;51.364;5.448;2024-02-28T11:37:08;19.98;;;9.60;;
8978;SDS011;4524;51.364;5.448;2024-02-28T11:39:36;21.45;;;9.48;;
8978;SDS011;4524;51.364;5.448;2024-02-28T11:42:08;20.92;;;9.05;;
8978;SDS011;4524;51.364;5.448;2024-02-28T11:44:43;18.80;;;9.75;;
8978;SDS011;4524;51.364;5.448;2024-02-28T11:47:24;17.65;;;9.63;;
8978;SDS011;4524;51.364;5.448;2024-02-28T11:49:57;19.05;;;8.23;;
8978;SDS011;4524;51.364;5.448;2024-02-28T11:52:26;16.58;;;8.32;;
8978;SDS011;4524;51.364;5.448;2024-02-28T11:54:58;14.55;;;7.78;;
8978;SDS011;4524;51.364;5.448;2024-02-28T11:57:26;20.35;;;9.05;;
8978;SDS011;4524;51.364;5.448;2024-02-28T11:59:57;18.80;;;7.93;;
8978;SDS011;4524;51.364;5.448;2024-02-28T12:02:25;16.73;;;8.45;;
8978;SDS011;4524;51.364;5.448;2024-02-28T12:05:01;16.45;;;8.20;;
8978;SDS011;4524;51.364;5.448;2024-02-28T12:07:30;21.48;;;9.13;;
8978;SDS011;4524;51.364;5.448;2024-02-28T12:12:27;25.58;;;9.75;;
8978;SDS011;4524;51.364;5.448;2024-02-28T12:14:58;20.55;;;9.68;;
8978;SDS011;4524;51.364;5.448;2024-02-28T12:17:35;16.75;;;7.45;;
8978;SDS011;4524;51.364;5.448;2024-02-28T12:20:07;18.88;;;10.02;;
8978;SDS011;4524;51.364;5.448;2024-02-28T12:22:37;18.15;;;8.75;;
8978;SDS011;4524;51.364;5.448;2024-02-28T12:25:06;17.17;;;8.40;;
8978;SDS011;4524;51.364;5.448;2024-02-28T12:27:36;17.60;;;8.90;;
8978;SDS011;4524;51.364;5.448;2024-02-28T12:30:05;26.98;;;10.25;;
8978;SDS011;4524;51.364;5.448;2024-02-28T12:32:36;17.95;;;9.18;;
8978;SDS011;4524;51.364;5.448;2024-02-28T12:37:35;19.98;;;8.88;;
8978;SDS011;4524;51.364;5.448;2024-02-28T12:40:05;14.93;;;7.20;;
8978;SDS011;4524;51.364;5.448;2024-02-28T12:42:46;16.95;;;7.70;;
8978;SDS011;4524;51.364;5.448;2024-02-28T12:45:14;19.50;;;7.95;;
8978;SDS011;4524;51.364;5.448;2024-02-28T12:47:43;15.57;;;8.18;;
8978;SDS011;4524;51.364;5.448;2024-02-28T12:50:15;17.55;;;7.60;;
8978;SDS011;4524;51.364;5.448;2024-02-28T12:52:48;15.15;;;7.60;;
8978;SDS011;4524;51.364;5.448;2024-02-28T12:55:20;17.98;;;7.97;;
8978;SDS011;4524;51.364;5.448;2024-02-28T12:57:49;16.75;;;8.30;;
8978;SDS011;4524;51.364;5.448;2024-02-28T13:00:18;17.13;;;8.02;;
8978;SDS011;4524;51.364;5.448;2024-02-28T13:02:47;14.68;;;6.63;;
8978;SDS011;4524;51.364;5.448;2024-02-28T13:05:18;16.65;;;7.25;;
8978;SDS011;4524;51.364;5.448;2024-02-28T13:07:48;14.02;;;7.22;;
8978;SDS011;4524;51.364;5.448;2024-02-28T13:10:17;15.27;;;7.20;;
8978;SDS011;4524;51.364;5.448;2024-02-28T13:12:45;12.40;;;7.15;;
8978;SDS011;4524;51.364;5.448;2024-02-28T13:15:14;12.57;;;6.28;;
8978;SDS011;4524;51.364;5.448;2024-02-28T13:17:42;11.82;;;5.97;;
8978;SDS011;4524;51.364;5.448;2024-02-28T13:20:13;12.15;;;6.60;;
8978;SDS011;4524;51.364;5.448;2024-02-28T13:22:43;10.68;;;5.85;;
8978;SDS011;4524;51.364;5.448;2024-02-28T13:25:11;14.48;;;6.43;;
8978;SDS011;4524;51.364;5.448;2024-02-28T13:27:49;17.90;;;6.25;;
8978;SDS011;4524;51.364;5.448;2024-02-28T13:30:17;9.48;;;4.68;;
8978;SDS011;4524;51.364;5.448;2024-02-28T13:32:46;11.20;;;5.20;;
8978;SDS011;4524;51.364;5.448;2024-02-28T13:35:15;15.45;;;5.07;;
8978;SDS011;4524;51.364;5.448;2024-02-28T13:37:45;10.73;;;5.03;;
8978;SDS011;4524;51.364;5.448;2024-02-28T13:40:16;16.33;;;5.90;;
8978;SDS011;4524;51.364;5.448;2024-02-28T13:42:44;10.82;;;5.93;;
8978;SDS011;4524;51.364;5.448;2024-02-28T13:45:13;16.25;;;6.40;;
8978;SDS011;4524;51.364;5.448;2024-02-28T13:47:42;13.32;;;5.20;;
8978;SDS011;4524;51.364;5.448;2024-02-28T13:52:40;12.45;;;6.60;;
8978;SDS011;4524;51.364;5.448;2024-02-28T13:55:11;10.68;;;5.13;;
8978;SDS011;4524;51.364;5.448;2024-02-28T13:57:39;11.95;;;6.70;;
8978;SDS011;4524;51.364;5.448;2024-02-28T14:00:08;9.82;;;5.43;;
8978;SDS011;4524;51.364;5.448;2024-02-28T14:02:39;8.65;;;5.55;;
8978;SDS011;4524;51.364;5.448;2024-02-28T14:05:08;9.32;;;5.00;;
8978;SDS011;4524;51.364;5.448;2024-02-28T14:07:36;10.93;;;5.85;;
8978;SDS011;4524;51.364;5.448;2024-02-28T14:10:07;9.90;;;5.53;;
8978;SDS011;4524;51.364;5.448;2024-02-28T14:12:39;13.50;;;5.70;;
8978;SDS011;4524;51.364;5.448;2024-02-28T14:15:08;10.20;;;6.45;;
8978;SDS011;4524;51.364;5.448;2024-02-28T14:17:37;13.70;;;5.93;;
8978;SDS011;4524;51.364;5.448;2024-02-28T14:20:07;11.45;;;5.72;;
8978;SDS011;4524;51.364;5.448;2024-02-28T14:22:36;12.10;;;5.45;;
8978;SDS011;4524;51.364;5.448;2024-02-28T14:25:10;10.40;;;5.88;;
8978;SDS011;4524;51.364;5.448;2024-02-28T14:27:42;12.32;;;5.90;;
8978;SDS011;4524;51.364;5.448;2024-02-28T14:30:12;10.57;;;5.53;;
8978;SDS011;4524;51.364;5.448;2024-02-28T14:32:42;10.50;;;5.80;;
8978;SDS011;4524;51.364;5.448;2024-02-28T14:35:11;10.02;;;5.32;;
8978;SDS011;4524;51.364;5.448;2024-02-28T14:37:42;10.15;;;5.32;;
8978;SDS011;4524;51.364;5.448;2024-02-28T14:40:11;10.88;;;5.25;;
8978;SDS011;4524;51.364;5.448;2024-02-28T14:42:40;7.60;;;4.47;;
8978;SDS011;4524;51.364;5.448;2024-02-28T14:45:12;8.75;;;4.95;;
8978;SDS011;4524;51.364;5.448;2024-02-28T14:47:42;7.65;;;4.47;;
8978;SDS011;4524;51.364;5.448;2024-02-28T14:50:11;8.32;;;5.22;;
8978;SDS011;4524;51.364;5.448;2024-02-28T14:52:40;10.23;;;4.72;;
8978;SDS011;4524;51.364;5.448;2024-02-28T14:55:09;13.05;;;5.00;;
8978;SDS011;4524;51.364;5.448;2024-02-28T14:57:39;9.90;;;4.22;;
8978;SDS011;4524;51.364;5.448;2024-02-28T15:00:11;7.47;;;3.97;;
8978;SDS011;4524;51.364;5.448;2024-02-28T15:03:01;12.73;;;4.65;;
8978;SDS011;4524;51.364;5.448;2024-02-28T15:05:31;7.75;;;4.45;;
8978;SDS011;4524;51.364;5.448;2024-02-28T15:07:59;7.55;;;4.13;;
8978;SDS011;4524;51.364;5.448;2024-02-28T15:12:58;8.80;;;4.13;;
8978;SDS011;4524;51.364;5.448;2024-02-28T15:15:27;6.93;;;3.95;;
8978;SDS011;4524;51.364;5.448;2024-02-28T15:17:55;8.65;;;4.05;;
8978;SDS011;4524;51.364;5.448;2024-02-28T15:20:24;7.32;;;3.63;;
8978;SDS011;4524;51.364;5.448;2024-02-28T15:22:57;6.63;;;4.07;;
8978;SDS011;4524;51.364;5.448;2024-02-28T15:25:26;8.30;;;4.00;;
8978;SDS011;4524;51.364;5.448;2024-02-28T15:28:01;9.32;;;4.70;;
8978;SDS011;4524;51.364;5.448;2024-02-28T15:30:31;7.82;;;3.67;;